sensor_id;sensor_type;location;lat;lon;timestamp;P1;durP1;ratioP1;P2;durP2;ratioP2
61460;SDS011;47325;50.506;4.472;2023-03-15T00:02:05;4.40;;;2.40;;
61460;SDS011;47325;50.506;4.472;2023-03-15T00:07:49;6.10;;;2.40;;
61460;SDS011;47325;50.506;4.472;2023-03-15T00:13:33;3.70;;;2.20;;
61460;SDS011;47325;50.506;4.472;2023-03-15T00:19:17;5.10;;;2.30;;
61460;SDS011;47325;50.506;4.472;2023-03-15T00:25:00;6.00;;;1.90;;
61460;SDS011;47325;50.506;4.472;2023-03-15T00:30:44;3.40;;;1.50;;
61460;SDS011;47325;50.506;4.472;2023-03-15T00:36:30;5.00;;;1.80;;
61460;SDS011;47325;50.506;4.472;2023-03-15T00:42:15;3.20;;;1.70;;
61460;SDS011;47325;50.506;4.472;2023-03-15T00:47:58;4.00;;;1.60;;
61460;SDS011;47325;50.506;4.472;2023-03-15T00:53:43;3.20;;;1.40;;
61460;SDS011;47325;50.506;4.472;2023-03-15T00:59:27;3.50;;;1.60;;
61460;SDS011;47325;50.506;4.472;2023-03-15T01:05:12;3.20;;;1.40;;
61460;SDS011;47325;50.506;4.472;2023-03-15T01:10:56;3.50;;;1.50;;
61460;SDS011;47325;50.506;4.472;2023-03-15T01:16:43;3.10;;;1.60;;
61460;SDS011;47325;50.506;4.472;2023-03-15T01:22:27;3.60;;;1.40;;
61460;SDS011;47325;50.506;4.472;2023-03-15T01:28:11;2.80;;;1.20;;
61460;SDS011;47325;50.506;4.472;2023-03-15T01:33:55;4.00;;;1.30;;
61460;SDS011;47325;50.506;4.472;2023-03-15T01:39:39;3.80;;;1.60;;
61460;SDS011;47325;50.506;4.472;2023-03-15T01:51:22;3.40;;;1.30;;
61460;SDS011;47325;50.506;4.472;2023-03-15T01:57:07;3.60;;;1.50;;
61460;SDS011;47325;50.506;4.472;2023-03-15T02:02:53;2.90;;;1.20;;
61460;SDS011;47325;50.506;4.472;2023-03-15T02:08:40;3.00;;;1.50;;
61460;SDS011;47325;50.506;4.472;2023-03-15T02:14:26;4.40;;;1.40;;
61460;SDS011;47325;50.506;4.472;2023-03-15T02:20:14;3.20;;;1.50;;
61460;SDS011;47325;50.506;4.472;2023-03-15T02:26:05;5.00;;;1.60;;
61460;SDS011;47325;50.506;4.472;2023-03-15T02:31:51;4.80;;;1.70;;
61460;SDS011;47325;50.506;4.472;2023-03-15T02:37:35;3.40;;;1.60;;
61460;SDS011;47325;50.506;4.472;2023-03-15T02:43:19;4.20;;;1.50;;
61460;SDS011;47325;50.506;4.472;2023-03-15T02:49:06;3.70;;;1.60;;
61460;SDS011;47325;50.506;4.472;2023-03-15T02:54:50;3.80;;;1.50;;
61460;SDS011;47325;50.506;4.472;2023-03-15T03:00:33;5.20;;;1.80;;
61460;SDS011;47325;50.506;4.472;2023-03-15T03:06:17;3.90;;;1.60;;
61460;SDS011;47325;50.506;4.472;2023-03-15T03:12:01;4.50;;;1.80;;
61460;SDS011;47325;50.506;4.472;2023-03-15T03:17:45;3.80;;;1.50;;
61460;SDS011;47325;50.506;4.472;2023-03-15T03:23:29;4.80;;;1.90;;
61460;SDS011;47325;50.506;4.472;2023-03-15T03:29:13;4.10;;;1.70;;
61460;SDS011;47325;50.506;4.472;2023-03-15T03:34:57;3.60;;;1.50;;
61460;SDS011;47325;50.506;4.472;2023-03-15T03:40:47;3.20;;;1.50;;
61460;SDS011;47325;50.506;4.472;2023-03-15T03:46:30;3.30;;;1.40;;
61460;SDS011;47325;50.506;4.472;2023-03-15T03:52:14;3.60;;;1.60;;
61460;SDS011;47325;50.506;4.472;2023-03-15T03:57:58;4.50;;;1.60;;
61460;SDS011;47325;50.506;4.472;2023-03-15T04:03:42;4.10;;;1.60;;
61460;SDS011;47325;50.506;4.472;2023-03-15T04:09:25;4.10;;;1.40;;
61460;SDS011;47325;50.506;4.472;2023-03-15T04:15:10;4.80;;;1.80;;
61460;SDS011;47325;50.506;4.472;2023-03-15T04:20:54;4.40;;;1.90;;
61460;SDS011;47325;50.506;4.472;2023-03-15T04:26:38;5.20;;;2.10;;
61460;SDS011;47325;50.506;4.472;2023-03-15T04:32:21;5.30;;;2.10;;
61460;SDS011;47325;50.506;4.472;2023-03-15T04:38:05;3.60;;;1.70;;
61460;SDS011;47325;50.506;4.472;2023-03-15T04:43:49;3.80;;;1.90;;
61460;SDS011;47325;50.506;4.472;2023-03-15T04:49:33;3.80;;;1.80;;
61460;SDS011;47325;50.506;4.472;2023-03-15T04:55:17;3.30;;;1.80;;
61460;SDS011;47325;50.506;4.472;2023-03-15T05:01:00;4.00;;;1.80;;
61460;SDS011;47325;50.506;4.472;2023-03-15T05:06:45;3.70;;;1.90;;
61460;SDS011;47325;50.506;4.472;2023-03-15T05:12:28;4.30;;;1.90;;
61460;SDS011;47325;50.506;4.472;2023-03-15T05:18:12;3.40;;;2.30;;
61460;SDS011;47325;50.506;4.472;2023-03-15T05:23:56;4.30;;;2.30;;
61460;SDS011;47325;50.506;4.472;2023-03-15T05:29:40;4.80;;;2.40;;
61460;SDS011;47325;50.506;4.472;2023-03-15T05:35:24;4.70;;;2.60;;
61460;SDS011;47325;50.506;4.472;2023-03-15T05:41:08;4.30;;;2.50;;
61460;SDS011;47325;50.506;4.472;2023-03-15T05:46:51;4.30;;;2.70;;
61460;SDS011;47325;50.506;4.472;2023-03-15T05:52:35;4.70;;;2.70;;
61460;SDS011;47325;50.506;4.472;2023-03-15T05:58:19;4.90;;;3.00;;
61460;SDS011;47325;50.506;4.472;2023-03-15T06:04:03;4.90;;;3.00;;
61460;SDS011;47325;50.506;4.472;2023-03-15T06:09:47;6.40;;;3.30;;
61460;SDS011;47325;50.506;4.472;2023-03-15T06:15:30;6.50;;;3.30;;
61460;SDS011;47325;50.506;4.472;2023-03-15T06:21:14;6.40;;;3.60;;
61460;SDS011;47325;50.506;4.472;2023-03-15T06:26:58;7.30;;;3.60;;
61460;SDS011;47325;50.506;4.472;2023-03-15T06:32:42;6.30;;;3.40;;
61460;SDS011;47325;50.506;4.472;2023-03-15T06:38:26;6.00;;;3.80;;
61460;SDS011;47325;50.506;4.472;2023-03-15T06:44:10;6.20;;;3.70;;
61460;SDS011;47325;50.506;4.472;2023-03-15T06:49:54;6.20;;;3.70;;
61460;SDS011;47325;50.506;4.472;2023-03-15T06:55:39;6.70;;;3.60;;
61460;SDS011;47325;50.506;4.472;2023-03-15T07:01:23;7.30;;;3.90;;
61460;SDS011;47325;50.506;4.472;2023-03-15T07:07:07;7.40;;;3.90;;
61460;SDS011;47325;50.506;4.472;2023-03-15T07:12:51;7.00;;;3.80;;
61460;SDS011;47325;50.506;4.472;2023-03-15T07:18:35;6.60;;;3.60;;
61460;SDS011;47325;50.506;4.472;2023-03-15T07:24:19;5.60;;;3.50;;
61460;SDS011;47325;50.506;4.472;2023-03-15T07:30:03;6.10;;;3.60;;
61460;SDS011;47325;50.506;4.472;2023-03-15T07:35:46;7.70;;;3.40;;
61460;SDS011;47325;50.506;4.472;2023-03-15T07:41:30;6.20;;;3.50;;
61460;SDS011;47325;50.506;4.472;2023-03-15T07:47:14;5.20;;;3.40;;
61460;SDS011;47325;50.506;4.472;2023-03-15T07:52:58;6.20;;;3.40;;
61460;SDS011;47325;50.506;4.472;2023-03-15T07:58:42;6.20;;;3.30;;
61460;SDS011;47325;50.506;4.472;2023-03-15T08:04:25;6.30;;;3.60;;
61460;SDS011;47325;50.506;4.472;2023-03-15T08:10:10;4.70;;;3.10;;
61460;SDS011;47325;50.506;4.472;2023-03-15T08:15:54;6.30;;;3.10;;
61460;SDS011;47325;50.506;4.472;2023-03-15T08:21:38;4.50;;;3.10;;
61460;SDS011;47325;50.506;4.472;2023-03-15T08:27:21;5.40;;;3.10;;
61460;SDS011;47325;50.506;4.472;2023-03-15T08:33:05;4.80;;;2.90;;
61460;SDS011;47325;50.506;4.472;2023-03-15T08:38:49;4.70;;;2.90;;
61460;SDS011;47325;50.506;4.472;2023-03-15T08:44:33;6.00;;;2.70;;
61460;SDS011;47325;50.506;4.472;2023-03-15T08:50:18;4.10;;;2.40;;
61460;SDS011;47325;50.506;4.472;2023-03-15T08:56:02;4.40;;;2.70;;
61460;SDS011;47325;50.506;4.472;2023-03-15T09:01:52;4.10;;;2.30;;
61460;SDS011;47325;50.506;4.472;2023-03-15T09:07:37;5.00;;;2.30;;
61460;SDS011;47325;50.506;4.472;2023-03-15T09:13:21;3.50;;;2.00;;
61460;SDS011;47325;50.506;4.472;2023-03-15T09:19:04;4.40;;;2.10;;
61460;SDS011;47325;50.506;4.472;2023-03-15T09:24:48;3.00;;;1.90;;
61460;SDS011;47325;50.506;4.472;2023-03-15T09:30:34;3.70;;;1.70;;
61460;SDS011;47325;50.506;4.472;2023-03-15T09:36:18;3.40;;;1.60;;
61460;SDS011;47325;50.506;4.472;2023-03-15T09:42:01;3.40;;;1.80;;
61460;SDS011;47325;50.506;4.472;2023-03-15T09:47:49;2.90;;;1.60;;
61460;SDS011;47325;50.506;4.472;2023-03-15T09:53:38;2.90;;;1.40;;
61460;SDS011;47325;50.506;4.472;2023-03-15T09:59:25;3.50;;;1.40;;
61460;SDS011;47325;50.506;4.472;2023-03-15T10:05:14;3.50;;;1.40;;
61460;SDS011;47325;50.506;4.472;2023-03-15T10:11:02;1.30;;;1.10;;
61460;SDS011;47325;50.506;4.472;2023-03-15T10:16:48;1.60;;;1.10;;
61460;SDS011;47325;50.506;4.472;2023-03-15T10:22:33;3.10;;;1.20;;
61460;SDS011;47325;50.506;4.472;2023-03-15T10:28:22;1.90;;;1.00;;
61460;SDS011;47325;50.506;4.472;2023-03-15T10:34:07;1.90;;;1.00;;
61460;SDS011;47325;50.506;4.472;2023-03-15T10:39:52;1.60;;;1.00;;
61460;SDS011;47325;50.506;4.472;2023-03-15T10:45:37;2.90;;;1.10;;
61460;SDS011;47325;50.506;4.472;2023-03-15T10:51:22;2.10;;;1.00;;
61460;SDS011;47325;50.506;4.472;2023-03-15T10:57:11;3.10;;;1.00;;
61460;SDS011;47325;50.506;4.472;2023-03-15T11:03:03;2.50;;;1.10;;
61460;SDS011;47325;50.506;4.472;2023-03-15T11:08:48;1.90;;;1.00;;
61460;SDS011;47325;50.506;4.472;2023-03-15T11:14:36;1.90;;;0.80;;
61460;SDS011;47325;50.506;4.472;2023-03-15T11:20:25;2.70;;;1.10;;
61460;SDS011;47325;50.506;4.472;2023-03-15T11:26:12;1.90;;;0.90;;
61460;SDS011;47325;50.506;4.472;2023-03-15T11:32:15;1.50;;;0.90;;
61460;SDS011;47325;50.506;4.472;2023-03-15T11:38:01;2.50;;;0.90;;
61460;SDS011;47325;50.506;4.472;2023-03-15T11:44:02;1.80;;;0.90;;
61460;SDS011;47325;50.506;4.472;2023-03-15T11:49:49;1.60;;;0.80;;
61460;SDS011;47325;50.506;4.472;2023-03-15T11:55:33;1.60;;;0.90;;
61460;SDS011;47325;50.506;4.472;2023-03-15T12:01:24;1.50;;;0.80;;
61460;SDS011;47325;50.506;4.472;2023-03-15T12:07:10;1.00;;;0.70;;
61460;SDS011;47325;50.506;4.472;2023-03-15T12:13:05;1.90;;;0.90;;
61460;SDS011;47325;50.506;4.472;2023-03-15T12:18:47;2.70;;;0.90;;
61460;SDS011;47325;50.506;4.472;2023-03-15T12:24:33;1.80;;;0.80;;
61460;SDS011;47325;50.506;4.472;2023-03-15T12:30:21;2.00;;;1.00;;
61460;SDS011;47325;50.506;4.472;2023-03-15T12:36:06;2.00;;;0.80;;
61460;SDS011;47325;50.506;4.472;2023-03-15T12:41:52;1.70;;;0.90;;
61460;SDS011;47325;50.506;4.472;2023-03-15T12:47:47;1.60;;;1.00;;
61460;SDS011;47325;50.506;4.472;2023-03-15T12:53:39;1.70;;;0.90;;
61460;SDS011;47325;50.506;4.472;2023-03-15T12:59:30;2.50;;;1.00;;
61460;SDS011;47325;50.506;4.472;2023-03-15T13:05:16;3.40;;;1.00;;
61460;SDS011;47325;50.506;4.472;2023-03-15T13:11:03;2.60;;;0.90;;
61460;SDS011;47325;50.506;4.472;2023-03-15T13:16:51;2.60;;;1.00;;
61460;SDS011;47325;50.506;4.472;2023-03-15T13:22:40;2.40;;;1.00;;
61460;SDS011;47325;50.506;4.472;2023-03-15T13:28:37;1.80;;;1.10;;
61460;SDS011;47325;50.506;4.472;2023-03-15T13:34:22;2.40;;;1.00;;
61460;SDS011;47325;50.506;4.472;2023-03-15T13:40:10;2.10;;;1.00;;
61460;SDS011;47325;50.506;4.472;2023-03-15T13:45:55;2.50;;;1.00;;
61460;SDS011;47325;50.506;4.472;2023-03-15T13:51:39;2.50;;;1.10;;
61460;SDS011;47325;50.506;4.472;2023-03-15T13:57:23;1.90;;;1.00;;
61460;SDS011;47325;50.506;4.472;2023-03-15T14:03:09;2.10;;;1.10;;
61460;SDS011;47325;50.506;4.472;2023-03-15T14:08:59;1.90;;;1.10;;
61460;SDS011;47325;50.506;4.472;2023-03-15T14:14:45;1.90;;;1.20;;
61460;SDS011;47325;50.506;4.472;2023-03-15T14:20:33;1.60;;;1.10;;
61460;SDS011;47325;50.506;4.472;2023-03-15T14:26:20;2.40;;;1.20;;
61460;SDS011;47325;50.506;4.472;2023-03-15T14:32:06;2.30;;;1.20;;
61460;SDS011;47325;50.506;4.472;2023-03-15T14:38:03;2.10;;;1.10;;
61460;SDS011;47325;50.506;4.472;2023-03-15T14:43:50;1.50;;;1.00;;
61460;SDS011;47325;50.506;4.472;2023-03-15T14:49:33;2.10;;;1.10;;
61460;SDS011;47325;50.506;4.472;2023-03-15T14:55:21;3.00;;;1.40;;
61460;SDS011;47325;50.506;4.472;2023-03-15T15:01:06;2.40;;;1.20;;
61460;SDS011;47325;50.506;4.472;2023-03-15T15:06:52;2.10;;;1.20;;
61460;SDS011;47325;50.506;4.472;2023-03-15T15:12:37;1.90;;;1.10;;
61460;SDS011;47325;50.506;4.472;2023-03-15T15:18:21;1.70;;;1.30;;
61460;SDS011;47325;50.506;4.472;2023-03-15T15:24:06;1.60;;;1.00;;
61460;SDS011;47325;50.506;4.472;2023-03-15T15:29:53;1.80;;;1.10;;
61460;SDS011;47325;50.506;4.472;2023-03-15T15:35:37;1.50;;;1.10;;
61460;SDS011;47325;50.506;4.472;2023-03-15T15:41:22;1.40;;;1.00;;
61460;SDS011;47325;50.506;4.472;2023-03-15T15:47:06;2.40;;;1.20;;
61460;SDS011;47325;50.506;4.472;2023-03-15T15:52:50;1.70;;;1.00;;
61460;SDS011;47325;50.506;4.472;2023-03-15T15:58:35;1.40;;;1.10;;
61460;SDS011;47325;50.506;4.472;2023-03-15T16:04:22;1.50;;;1.20;;
61460;SDS011;47325;50.506;4.472;2023-03-15T16:10:09;1.50;;;1.20;;
61460;SDS011;47325;50.506;4.472;2023-03-15T16:15:59;2.10;;;1.20;;
61460;SDS011;47325;50.506;4.472;2023-03-15T16:21:43;1.90;;;1.10;;
61460;SDS011;47325;50.506;4.472;2023-03-15T16:27:28;1.90;;;1.10;;
61460;SDS011;47325;50.506;4.472;2023-03-15T16:33:13;2.70;;;1.30;;
61460;SDS011;47325;50.506;4.472;2023-03-15T16:38:58;2.00;;;1.20;;
61460;SDS011;47325;50.506;4.472;2023-03-15T16:44:42;1.80;;;1.30;;
61460;SDS011;47325;50.506;4.472;2023-03-15T16:50:27;1.80;;;1.20;;
61460;SDS011;47325;50.506;4.472;2023-03-15T16:56:12;1.80;;;1.10;;
61460;SDS011;47325;50.506;4.472;2023-03-15T17:01:56;1.30;;;1.10;;
61460;SDS011;47325;50.506;4.472;2023-03-15T17:07:40;2.90;;;1.30;;
61460;SDS011;47325;50.506;4.472;2023-03-15T17:13:26;2.50;;;1.20;;
61460;SDS011;47325;50.506;4.472;2023-03-15T17:19:13;2.60;;;1.20;;
61460;SDS011;47325;50.506;4.472;2023-03-15T17:24:57;1.80;;;1.40;;
61460;SDS011;47325;50.506;4.472;2023-03-15T17:30:40;3.80;;;1.50;;
61460;SDS011;47325;50.506;4.472;2023-03-15T17:36:33;3.20;;;1.70;;
61460;SDS011;47325;50.506;4.472;2023-03-15T17:42:14;3.20;;;2.20;;
61460;SDS011;47325;50.506;4.472;2023-03-15T17:47:58;3.50;;;2.30;;
61460;SDS011;47325;50.506;4.472;2023-03-15T17:53:42;2.90;;;2.00;;
61460;SDS011;47325;50.506;4.472;2023-03-15T17:59:26;3.10;;;2.10;;
61460;SDS011;47325;50.506;4.472;2023-03-15T18:05:11;4.10;;;2.30;;
61460;SDS011;47325;50.506;4.472;2023-03-15T18:10:56;5.20;;;2.20;;
61460;SDS011;47325;50.506;4.472;2023-03-15T18:16:40;5.20;;;2.40;;
61460;SDS011;47325;50.506;4.472;2023-03-15T18:22:24;4.60;;;2.40;;
61460;SDS011;47325;50.506;4.472;2023-03-15T18:28:07;4.60;;;2.20;;
61460;SDS011;47325;50.506;4.472;2023-03-15T18:33:52;4.00;;;2.30;;
61460;SDS011;47325;50.506;4.472;2023-03-15T18:39:36;3.50;;;2.30;;
61460;SDS011;47325;50.506;4.472;2023-03-15T18:45:21;4.60;;;2.60;;
61460;SDS011;47325;50.506;4.472;2023-03-15T18:51:07;4.30;;;2.30;;
61460;SDS011;47325;50.506;4.472;2023-03-15T18:56:51;3.50;;;2.10;;
61460;SDS011;47325;50.506;4.472;2023-03-15T19:02:35;4.00;;;2.40;;
61460;SDS011;47325;50.506;4.472;2023-03-15T19:08:19;2.60;;;2.30;;
61460;SDS011;47325;50.506;4.472;2023-03-15T19:14:02;4.90;;;2.70;;
61460;SDS011;47325;50.506;4.472;2023-03-15T19:19:46;3.10;;;2.10;;
61460;SDS011;47325;50.506;4.472;2023-03-15T19:25:30;3.90;;;2.30;;
61460;SDS011;47325;50.506;4.472;2023-03-15T19:31:14;4.60;;;2.50;;
61460;SDS011;47325;50.506;4.472;2023-03-15T19:36:58;3.70;;;2.50;;
61460;SDS011;47325;50.506;4.472;2023-03-15T19:42:42;4.40;;;2.60;;
61460;SDS011;47325;50.506;4.472;2023-03-15T19:48:27;3.30;;;2.40;;
61460;SDS011;47325;50.506;4.472;2023-03-15T19:54:11;3.60;;;2.50;;
61460;SDS011;47325;50.506;4.472;2023-03-15T19:59:54;3.60;;;2.70;;
61460;SDS011;47325;50.506;4.472;2023-03-15T20:05:40;5.40;;;2.70;;
61460;SDS011;47325;50.506;4.472;2023-03-15T20:11:23;4.90;;;3.00;;
61460;SDS011;47325;50.506;4.472;2023-03-15T20:17:08;4.90;;;3.00;;
61460;SDS011;47325;50.506;4.472;2023-03-15T20:22:52;5.30;;;3.10;;
61460;SDS011;47325;50.506;4.472;2023-03-15T20:28:36;6.40;;;3.10;;
61460;SDS011;47325;50.506;4.472;2023-03-15T20:34:20;4.60;;;3.30;;
61460;SDS011;47325;50.506;4.472;2023-03-15T20:40:04;6.60;;;3.30;;
61460;SDS011;47325;50.506;4.472;2023-03-15T20:45:52;4.10;;;3.30;;
61460;SDS011;47325;50.506;4.472;2023-03-15T20:51:36;6.20;;;3.30;;
61460;SDS011;47325;50.506;4.472;2023-03-15T20:57:20;5.30;;;3.30;;
61460;SDS011;47325;50.506;4.472;2023-03-15T21:03:04;5.50;;;3.20;;
61460;SDS011;47325;50.506;4.472;2023-03-15T21:08:48;5.50;;;3.20;;
61460;SDS011;47325;50.506;4.472;2023-03-15T21:14:31;5.40;;;3.20;;
61460;SDS011;47325;50.506;4.472;2023-03-15T21:20:15;5.30;;;3.10;;
61460;SDS011;47325;50.506;4.472;2023-03-15T21:26:00;6.60;;;3.50;;
61460;SDS011;47325;50.506;4.472;2023-03-15T21:31:44;6.00;;;3.50;;
61460;SDS011;47325;50.506;4.472;2023-03-15T21:37:28;4.30;;;3.20;;
61460;SDS011;47325;50.506;4.472;2023-03-15T21:43:13;5.10;;;3.10;;
61460;SDS011;47325;50.506;4.472;2023-03-15T21:48:57;6.00;;;3.20;;
61460;SDS011;47325;50.506;4.472;2023-03-15T21:54:41;4.60;;;3.00;;
61460;SDS011;47325;50.506;4.472;2023-03-15T22:00:25;6.60;;;3.40;;
61460;SDS011;47325;50.506;4.472;2023-03-15T22:06:09;4.40;;;3.10;;
61460;SDS011;47325;50.506;4.472;2023-03-15T22:11:53;5.60;;;3.10;;
61460;SDS011;47325;50.506;4.472;2023-03-15T22:17:37;4.70;;;3.10;;
61460;SDS011;47325;50.506;4.472;2023-03-15T22:23:21;5.40;;;3.10;;
61460;SDS011;47325;50.506;4.472;2023-03-15T22:29:05;5.30;;;3.00;;
61460;SDS011;47325;50.506;4.472;2023-03-15T22:34:49;4.50;;;3.10;;
61460;SDS011;47325;50.506;4.472;2023-03-15T22:40:32;5.10;;;2.80;;
61460;SDS011;47325;50.506;4.472;2023-03-15T22:46:16;4.70;;;3.20;;
61460;SDS011;47325;50.506;4.472;2023-03-15T22:52:00;3.90;;;3.00;;
61460;SDS011;47325;50.506;4.472;2023-03-15T22:57:44;5.10;;;3.10;;
61460;SDS011;47325;50.506;4.472;2023-03-15T23:03:27;5.00;;;2.90;;
61460;SDS011;47325;50.506;4.472;2023-03-15T23:09:11;5.40;;;2.90;;
61460;SDS011;47325;50.506;4.472;2023-03-15T23:14:55;4.20;;;2.60;;
61460;SDS011;47325;50.506;4.472;2023-03-15T23:20:39;4.50;;;2.80;;
61460;SDS011;47325;50.506;4.472;2023-03-15T23:26:23;5.60;;;3.00;;
61460;SDS011;47325;50.506;4.472;2023-03-15T23:32:07;4.10;;;2.80;;
61460;SDS011;47325;50.506;4.472;2023-03-15T23:37:52;3.90;;;2.80;;
61460;SDS011;47325;50.506;4.472;2023-03-15T23:43:36;4.90;;;2.60;;
61460;SDS011;47325;50.506;4.472;2023-03-15T23:49:20;3.90;;;2.60;;
61460;SDS011;47325;50.506;4.472;2023-03-15T23:55:04;3.50;;;2.40;;
